Terre Rouge Seaplane Base

GF-0014 · Guyane, Frans-Guyana

METAR historie GF-0014 · Terre Rouge Seaplane Base

Hieronder zie je METAR's van de afgelopen dagen. Kies een jaar om door oudere METAR's te bladeren, vanaf het jaar 2007.

22 juni 2024

Tijd Code Weer Temp. Zicht Plafond Wind METAR/SPECI
13:00
V
30 °C 10 km+ - 130° 130° 6 kt METAR SMJP 221600Z 13006KT 9999 SCT005 FEW015CB SCT020 30/24 Q1012 RETS NOSIG
12:00
V
30 °C 10 km+ - 130° 130° 6 kt METAR SMJP 221500Z 13006KT 9999 TS SCT005 FEW012CB SCT015 30/24 Q1013 NOSIG
11:00
V
29 °C 10 km+ - 100° 100° 3 kt METAR SMJP 221400Z 10003KT 9999 TS SCT005 FEW012CB SCT015 29/24 Q1014 NOSIG
10:00
V
27 °C 10 km+ - 200° 200° 2 kt METAR SMJP 221300Z 20002KT 9999 SCT005 FEW012CB SCT020 27/24 Q1014 NOSIG
09:00
V
25 °C 10 km+ - 290° 290° 1 kt METAR SMJP 221200Z 29001KT 9999 SCT003 FEW010CB SCT018 25/25 Q1014 NOSIG
08:40
V
25 °C 8 km - 360° 360° 0 kt METAR SMJP 221140Z 00000KT 8000 SCT003 FEW010CB SCT018 25/25 Q1013 NOSIG
08:00
L
24 °C 800 m - 240° 240° 1 kt METAR SMJP 221100Z 24001KT 0800 FG SCT001 SCT020 24/23 Q1013 BECMG FM1130 5000 BR
07:26
L
24 °C 800 m - 360° 360° 0 kt METAR SMJP 221026Z 00000KT 0800 FG SCT001 24/24 Q1012 BECMG FM1100 5000 BR
07:00
M
24 °C 6 km - 360° 360° 0 kt METAR SMJP 221000Z 00000KT 6000 SCT004 SCT020 24/23 Q1012 NOSIG
06:00
M
24 °C 6 km - 070° 070° 1 kt METAR SMJP 220900Z 07001KT 6000 SCT004 SCT020 24/23 Q1012 NOSIG
05:13
V
24 °C 8 km - 350° 350° 1 kt METAR SMJP 220813Z 35001KT 8000 SCT003 24/23 Q1011 NOSIG
05:00
L
24 °C 1,5 km 200 ft 290° 290° 1 kt METAR SMJP 220800Z 29001KT 1500 BR BKN002 24/23 Q1011
02:00
V
25 °C 10 km+ - 100° 100° 2 kt METAR SMJP 220500Z 10002KT 9999 SCT005 SCT020 25/24 Q1012 NOSIG
01:00
V
25 °C 10 km+ - 090° 090° 3 kt METAR SMJP 220400Z 09003KT 9999 FEW005 SCT020 25/24 Q1013 NOSIG
00:00
V
25 °C 10 km+ - 360° 360° 0 kt METAR SMJP 220300Z 00000KT 9999 FEW006 SCT020 25/24 Q1013 NOSIG

21 juni 2024

Tijd Code Weer Temp. Zicht Plafond Wind METAR/SPECI
23:00
V
25 °C 10 km+ - 360° 360° 0 kt METAR SMJP 220200Z 00000KT 9999 FEW006 SCT020 25/24 Q1013 NOSIG
22:00
V
25 °C 10 km+ - 110° 110° 2 kt METAR SMJP 220100Z 11002KT 9999 FEW005 SCT020 25/24 Q1013 NOSIG
21:00
V
25 °C 10 km+ - 190° 190° 2 kt METAR SMJP 220000Z 19002KT 9999 SCT005 FEW015CB SCT020 25/24 Q1012 NOSIG
20:00
V
25 °C 10 km+ - 150° 150° 2 kt METAR SMJP 212300Z 15002KT 9999 -RA SCT006 FEW015CB SCT020 25/24 Q1011 NOSIG
19:00
V
26 °C 10 km+ - 090° 090° 6 kt METAR SMJP 212200Z 09006KT 9999 -SHRA SCT007 FEW012CB SCT020 26/25 Q1011 NOSIG
18:00
V
28 °C 10 km+ - 070° 070° 4 kt METAR SMJP 212100Z 07004KT 9999 -SHRA SCT006 FEW012CB SCT020 28/25 Q1010 NOSIG
17:00
V
28 °C 10 km+ - 150° 150° 6 kt METAR SMJP 212000Z 15006KT 9999 VCSH SCT008 FEW012CB SCT020 28/25 Q1009 NOSIG
16:00
V
30 °C 10 km+ - 140° 140° 5 kt METAR SMJP 211900Z 14005KT 9999 -SHRA SCT007 FEW015CB SCT020 30/26 Q1009 NOSIG
15:00
V
27 °C 10 km+ - 120° 120° 6 kt METAR SMJP 211800Z 12006KT 9999 SCT010 FEW015CB SCT020 27/25 Q1009 NOSIG
14:00
M
27 °C 6 km - 170° 170° 12 kt METAR SMJP 211700Z 17012KT 6000 -SHRA SCT010 SCT015CB 27/23 Q1010 TEMPO 4000 TSRA
13:00
V
32 °C 10 km+ - 030° 030° 4 kt METAR SMJP 211600Z 03004KT 9999 VCSH SCT015 FEW018CB 32/25 Q1011 NOSIG
12:00
M
30 °C 10 km+ 1.200 ft 110° 110° 4 kt METAR SMJP 211500Z 11004KT 9999 BKN012 FEW020CB 30/25 Q1012 NOSIG
11:00
M
30 °C 10 km+ 1.000 ft 140° 140° 4 kt METAR SMJP 211400Z 14004KT 9999 BKN010 30/25 Q1012 NOSIG
10:00
I
28 °C 10 km+ 800 ft 050° 050° 4 kt METAR SMJP 211300Z 05004KT 9999 BKN008 28/25 Q1012 NOSIG
09:00
V
26 °C 10 km+ - 360° 360° 0 kt METAR SMJP 211200Z 00000KT 9999 SCT005 SCT020 26/25 Q1013 NOSIG
08:00
I
26 °C 8 km 500 ft 090° 090° 3 kt METAR SMJP 211100Z 09003KT 8000 BKN005 26/25 Q1012 NOSIG
07:00
V
25 °C 8 km - 090° 090° 2 kt METAR SMJP 211000Z 09002KT 8000 SCT003 25/24 Q1011 NOSIG
06:00
I
25 °C 4 km - 010° 010° 2 kt METAR SMJP 210900Z 01002KT 4000 BR SCT003 SCT025 25/24 Q1011
05:00
V
25 °C 10 km+ - 340° 340° 2 kt METAR SMJP 210800Z 34002KT 9999 FEW005 SCT025 25/24 Q1010 NOSIG
04:00
V
24 °C 10 km+ - 360° 360° 0 kt METAR SMJP 210700Z 00000KT 9999 FEW005 SCT025 24/24 Q1010 NOSIG
03:00
V
25 °C 10 km+ - 030° 030° 4 kt METAR SMJP 210600Z 03004KT 9999 FEW005 SCT020 25/24 Q1011 NOSIG
02:00
V
25 °C 10 km+ - 350° 350° 3 kt METAR SMJP 210500Z 35003KT 9999 FEW005 SCT020 25/24 Q1011 NOSIG
01:00
V
25 °C 10 km+ - 050° 050° 2 kt METAR SMJP 210400Z 05002KT 9999 FEW006 SCT020 25/25 Q1012 NOSIG
00:00
V
25 °C 10 km+ - 150° 150° 2 kt METAR SMJP 210300Z 15002KT 9999 FEW006 SCT020 25/25 Q1012 NOSIG

20 juni 2024

Tijd Code Weer Temp. Zicht Plafond Wind METAR/SPECI
23:00
V
26 °C 10 km+ - 060° 060° 3 kt METAR SMJP 210200Z 06003KT 9999 FEW006 SCT020 26/25 Q1013 NOSIG
22:00
V
25 °C 10 km+ - 090° 090° 2 kt METAR SMJP 210100Z 09002KT 9999 FEW006 FEW012CB SCT020 25/25 Q1012 NOSIG
21:00
V
25 °C 10 km+ - 100° 100° 1 kt METAR SMJP 210000Z 10001KT 9999 FEW006 FEW012CB SCT020 25/25 Q1011 NOSIG
20:00
V
26 °C 10 km+ - 130° 130° 3 kt METAR SMJP 202300Z 13003KT 9999 FEW006 FEW012CB SCT020 26/25 Q1013 NOSIG
19:00
V
26 °C 10 km+ - 080° 080° 5 kt METAR SMJP 202200Z 08005KT 9999 VCSH FEW008 FEW012CB SCT020 26/25 Q1008 RETS NOSIG
18:00
V
26 °C 10 km+ - 060° 060° 4 kt METAR SMJP 202100Z 06004KT 9999 TS VCSH FEW006 FEW012CB SCT020 26/25 Q1009 NOSIG
17:00
V
25 °C 8 km - 130° 130° 4 kt METAR SMJP 202000Z 13004KT 8000 -TSRA SCT006 FEW012CB SCT020 25/25 Q1009 RESHRA NOSIG
16:44
M
25 °C 6 km - 080° 080° 8 kt METAR SMJP 201944Z 08008KT 6000 -TSRA SCT006 FEW012CB SCT020 25/25 Q1009 RESHRA BECMG AT1930 9999 NSW
16:30
L
25 °C 1 km 1.500 ft 080° 080° 7 kt METAR SMJP 201930Z 08007KT 1000 +TSRA SCT006 SCT012CB BKN015 25/25 Q1010 NOSIG
16:00
I
26 °C 3 km 1.500 ft 150° 150° 4 kt METAR SMJP 201900Z 15004KT 3000 TSRA SCT006 SCT012CB BKN015 26/25 Q1009 TEMPO 1000 +TSRA
15:26
L
28 °C 800 m 1.500 ft 120° 120° 5 kt METAR SMJP 201826Z 12005KT 0800 +TSRA SCT006 SCT012CB BKN015 28/26 Q1010 NOSIG
15:11
L
28 °C 800 m 1.500 ft 160° 160° 4 kt METAR SMJP 201811Z 16004KT 0800 +SHRA SCT005 SCT012 BKN015 28/26 Q1009 TEMPO TS
15:08
I
28 °C 2 km - 160° 160° 4 kt METAR SMJP 201808Z 16004KT 2000 SHRA SCT007 FEW012CB SCT015 28/26 Q1009 TEMPO TS
15:00
V
33 °C 10 km+ - 130° 130° 3 kt METAR SMJP 201800Z 13003KT 9999 VCSH FEW008 FEW012CB SCT015 33/25 Q1009 NOSIG
14:00
V
33 °C 10 km+ - 170° 170° 4 kt METAR SMJP 201700Z 17004KT 9999 VCSH SCT015 FEW018CB 33/24 Q1009 NOSIG
13:00
V
32 °C 10 km+ - 150° 150° 5 kt METAR SMJP 201600Z 15005KT 9999 VCSH SCT015 FEW018CB 32/25 Q1011 NOSIG
12:00
V
32 °C 10 km+ - 120° 120° 9 kt METAR SMJP 201500Z 12009KT 9999 SCT012 32/23 Q1012 NOSIG
11:00
V
31 °C 10 km+ - 120° 120° 9 kt METAR SMJP 201400Z 12009KT 9999 SCT010 31/24 Q1012 NOSIG
10:00
V
29 °C 10 km+ - 130° 130° 7 kt METAR SMJP 201300Z 13007KT 9999 SCT009 29/24 Q1012 NOSIG
09:00
V
27 °C 10 km+ - 110° 110° 4 kt METAR SMJP 201200Z 11004KT 9999 SCT006 27/24 Q1012 NOSIG
08:00
V
25 °C 10 km+ - 130° 130° 3 kt METAR SMJP 201100Z 13003KT 9999 SCT006 25/24 Q1012 NOSIG
07:00
L
24 °C 1,5 km 100 ft 160° 160° 1 kt METAR SMJP 201000Z 16001KT 1500 BR BKN001 24/24 Q1011 TEMPO 0800 FG
06:00
I
24 °C 3 km - 160° 160° 2 kt METAR SMJP 200900Z 16002KT 3000 BR SCT003 24/24 Q1010
05:00
V
25 °C 8 km - 070° 070° 3 kt METAR SMJP 200800Z 07003KT 8000 SCT005 25/24 Q1010 NOSIG
04:00
I
25 °C 2 km - 090° 090° 3 kt METAR SMJP 200700Z 09003KT 2000 BR SCT001 25/24 Q1010 TEMPO 0800 FG
03:00
V
25 °C 10 km+ - 110° 110° 2 kt METAR SMJP 200600Z 11002KT 9999 SCT006 25/24 Q1010 NOSIG
Wijziging doorgeven